Archer, Wyoming
Current Conditions -  °F | °C
As of 6:53 PM on Tuesday 21 Oct 2014 (Local Time) from KCYS Reporting Station
Overcast Overcast  
Wind Chill: 60°   Ceiling: 9000
Heat Index: 60°   Visibility: 10mi
Dew Point: 37°   Wind: 10mph
Humidity: 42%   Direction: 300°WNW
Pressure: 29.97"   Gusts: NA
Location:  41.4091°N, 104.861°W
Report Text: KCYS 220053Z 30009KT 10SM OVC090 16/03 A2997 RMK AO2 SLP094 T01560028
Loading
Personal Weather Stations






























Interactive Weather Map
Tropical Storm Tracking
New forecast layout! Learn more

10-Day Weather Forecast

Advertisements
Track Severe Weather on mobile